sensor_id;sensor_type;location;lat;lon;timestamp;temperature;humidity
71098;SHT35;58754;47.622;-2.986;2023-03-11T00:00:18;14.58;55.92
71098;SHT35;58754;47.622;-2.986;2023-03-11T00:02:47;14.58;55.91
71098;SHT35;58754;47.622;-2.986;2023-03-11T00:05:21;14.57;55.94
71098;SHT35;58754;47.622;-2.986;2023-03-11T00:07:47;14.60;55.93
71098;SHT35;58754;47.622;-2.986;2023-03-11T00:10:15;14.57;55.94
71098;SHT35;58754;47.622;-2.986;2023-03-11T00:12:41;14.58;55.92
71098;SHT35;58754;47.622;-2.986;2023-03-11T00:15:07;14.58;55.94
71098;SHT35;58754;47.622;-2.986;2023-03-11T00:17:32;14.57;55.95
71098;SHT35;58754;47.622;-2.986;2023-03-11T00:19:58;14.54;55.94
71098;SHT35;58754;47.622;-2.986;2023-03-11T00:22:24;14.58;55.93
71098;SHT35;58754;47.622;-2.986;2023-03-11T00:24:50;14.55;55.96
71098;SHT35;58754;47.622;-2.986;2023-03-11T00:27:15;14.58;55.93
71098;SHT35;58754;47.622;-2.986;2023-03-11T00:29:41;14.55;55.94
71098;SHT35;58754;47.622;-2.986;2023-03-11T00:32:07;14.57;55.96
71098;SHT35;58754;47.622;-2.986;2023-03-11T00:34:32;14.57;55.93
71098;SHT35;58754;47.622;-2.986;2023-03-11T00:36:58;14.55;55.97
71098;SHT35;58754;47.622;-2.986;2023-03-11T00:39:24;14.57;55.95
71098;SHT35;58754;47.622;-2.986;2023-03-11T00:41:49;14.57;55.95
71098;SHT35;58754;47.622;-2.986;2023-03-11T00:44:16;14.57;55.98
71098;SHT35;58754;47.622;-2.986;2023-03-11T00:46:41;14.54;55.96
71098;SHT35;58754;47.622;-2.986;2023-03-11T00:49:07;14.55;55.94
71098;SHT35;58754;47.622;-2.986;2023-03-11T00:51:33;14.57;55.97
71098;SHT35;58754;47.622;-2.986;2023-03-11T00:53:59;14.55;55.96
71098;SHT35;58754;47.622;-2.986;2023-03-11T00:56:25;14.55;55.94
71098;SHT35;58754;47.622;-2.986;2023-03-11T00:58:51;14.55;55.96
71098;SHT35;58754;47.622;-2.986;2023-03-11T01:01:18;14.55;55.94
71098;SHT35;58754;47.622;-2.986;2023-03-11T01:03:45;14.55;55.95
71098;SHT35;58754;47.622;-2.986;2023-03-11T01:06:11;14.55;55.96
71098;SHT35;58754;47.622;-2.986;2023-03-11T01:08:37;14.54;55.96
71098;SHT35;58754;47.622;-2.986;2023-03-11T01:11:05;14.55;55.96
71098;SHT35;58754;47.622;-2.986;2023-03-11T01:13:32;14.54;55.99
71098;SHT35;58754;47.622;-2.986;2023-03-11T01:15:58;14.55;55.94
71098;SHT35;58754;47.622;-2.986;2023-03-11T01:18:24;14.55;55.94
71098;SHT35;58754;47.622;-2.986;2023-03-11T01:20:50;14.55;55.92
71098;SHT35;58754;47.622;-2.986;2023-03-11T01:23:17;14.57;55.92
71098;SHT35;58754;47.622;-2.986;2023-03-11T01:25:44;14.55;55.94
71098;SHT35;58754;47.622;-2.986;2023-03-11T01:28:10;14.52;55.98
71098;SHT35;58754;47.622;-2.986;2023-03-11T01:30:38;14.52;55.95
71098;SHT35;58754;47.622;-2.986;2023-03-11T01:33:05;14.55;55.98
71098;SHT35;58754;47.622;-2.986;2023-03-11T01:35:31;14.52;55.97
71098;SHT35;58754;47.622;-2.986;2023-03-11T01:37:58;14.55;55.92
71098;SHT35;58754;47.622;-2.986;2023-03-11T01:40:34;14.54;55.96
71098;SHT35;58754;47.622;-2.986;2023-03-11T01:43:04;14.54;55.98
71098;SHT35;58754;47.622;-2.986;2023-03-11T01:45:41;14.54;55.99
71098;SHT35;58754;47.622;-2.986;2023-03-11T01:48:26;14.54;55.97
71098;SHT35;58754;47.622;-2.986;2023-03-11T01:50:53;14.54;56.00
71098;SHT35;58754;47.622;-2.986;2023-03-11T01:53:19;14.52;55.98
71098;SHT35;58754;47.622;-2.986;2023-03-11T01:55:45;14.54;56.00
71098;SHT35;58754;47.622;-2.986;2023-03-11T01:58:17;14.54;55.96
71098;SHT35;58754;47.622;-2.986;2023-03-11T02:00:45;14.52;55.97
71098;SHT35;58754;47.622;-2.986;2023-03-11T02:03:32;14.54;55.98
71098;SHT35;58754;47.622;-2.986;2023-03-11T02:06:04;14.51;55.95
71098;SHT35;58754;47.622;-2.986;2023-03-11T02:08:31;14.51;55.96
71098;SHT35;58754;47.622;-2.986;2023-03-11T02:11:02;14.51;56.02
71098;SHT35;58754;47.622;-2.986;2023-03-11T02:13:31;14.51;56.00
71098;SHT35;58754;47.622;-2.986;2023-03-11T02:15:59;14.54;55.97
71098;SHT35;58754;47.622;-2.986;2023-03-11T02:18:25;14.54;56.00
71098;SHT35;58754;47.622;-2.986;2023-03-11T02:26:57;14.52;56.04
71098;SHT35;58754;47.622;-2.986;2023-03-11T02:29:27;14.49;56.00
71098;SHT35;58754;47.622;-2.986;2023-03-11T02:31:55;14.49;56.01
71098;SHT35;58754;47.622;-2.986;2023-03-11T02:34:27;14.52;56.00
71098;SHT35;58754;47.622;-2.986;2023-03-11T02:36:53;14.49;56.00
71098;SHT35;58754;47.622;-2.986;2023-03-11T02:39:30;14.51;56.01
71098;SHT35;58754;47.622;-2.986;2023-03-11T02:41:57;14.47;56.01
71098;SHT35;58754;47.622;-2.986;2023-03-11T02:44:23;14.48;56.02
71098;SHT35;58754;47.622;-2.986;2023-03-11T02:46:49;14.48;56.05
71098;SHT35;58754;47.622;-2.986;2023-03-11T02:49:18;14.49;56.03
71098;SHT35;58754;47.622;-2.986;2023-03-11T02:51:44;14.49;56.05
71098;SHT35;58754;47.622;-2.986;2023-03-11T02:54:10;14.51;56.02
71098;SHT35;58754;47.622;-2.986;2023-03-11T02:56:36;14.48;56.05
71098;SHT35;58754;47.622;-2.986;2023-03-11T02:59:02;14.49;56.01
71098;SHT35;58754;47.622;-2.986;2023-03-11T03:01:27;14.51;56.04
71098;SHT35;58754;47.622;-2.986;2023-03-11T03:03:53;14.47;56.06
71098;SHT35;58754;47.622;-2.986;2023-03-11T03:06:19;14.49;56.06
71098;SHT35;58754;47.622;-2.986;2023-03-11T03:08:45;14.48;56.06
71098;SHT35;58754;47.622;-2.986;2023-03-11T03:11:10;14.48;56.06
71098;SHT35;58754;47.622;-2.986;2023-03-11T03:13:36;14.49;56.05
71098;SHT35;58754;47.622;-2.986;2023-03-11T03:16:02;14.48;56.05
71098;SHT35;58754;47.622;-2.986;2023-03-11T03:18:28;14.49;56.03
71098;SHT35;58754;47.622;-2.986;2023-03-11T03:20:54;14.49;56.08
71098;SHT35;58754;47.622;-2.986;2023-03-11T03:23:20;14.48;56.06
71098;SHT35;58754;47.622;-2.986;2023-03-11T03:25:46;14.48;56.05
71098;SHT35;58754;47.622;-2.986;2023-03-11T03:28:12;14.49;56.05
71098;SHT35;58754;47.622;-2.986;2023-03-11T03:30:39;14.49;56.06
71098;SHT35;58754;47.622;-2.986;2023-03-11T03:33:05;14.48;56.07
71098;SHT35;58754;47.622;-2.986;2023-03-11T03:35:32;14.48;56.03
71098;SHT35;58754;47.622;-2.986;2023-03-11T03:38:00;14.49;56.06
71098;SHT35;58754;47.622;-2.986;2023-03-11T03:40:26;14.47;56.08
71098;SHT35;58754;47.622;-2.986;2023-03-11T03:42:52;14.48;56.09
71098;SHT35;58754;47.622;-2.986;2023-03-11T03:45:18;14.51;56.06
71098;SHT35;58754;47.622;-2.986;2023-03-11T03:47:44;14.45;56.10
71098;SHT35;58754;47.622;-2.986;2023-03-11T03:50:10;14.47;56.08
71098;SHT35;58754;47.622;-2.986;2023-03-11T03:52:37;14.45;56.12
71098;SHT35;58754;47.622;-2.986;2023-03-11T03:55:04;14.48;56.12
71098;SHT35;58754;47.622;-2.986;2023-03-11T03:57:30;14.45;56.11
71098;SHT35;58754;47.622;-2.986;2023-03-11T03:59:56;14.48;56.10
71098;SHT35;58754;47.622;-2.986;2023-03-11T04:02:22;14.48;56.07
71098;SHT35;58754;47.622;-2.986;2023-03-11T04:04:48;14.49;56.10
71098;SHT35;58754;47.622;-2.986;2023-03-11T04:07:14;14.48;56.07
71098;SHT35;58754;47.622;-2.986;2023-03-11T04:09:41;14.47;56.10
71098;SHT35;58754;47.622;-2.986;2023-03-11T04:12:12;14.47;56.10
71098;SHT35;58754;47.622;-2.986;2023-03-11T04:14:39;14.48;56.11
71098;SHT35;58754;47.622;-2.986;2023-03-11T04:17:05;14.48;56.08
71098;SHT35;58754;47.622;-2.986;2023-03-11T04:19:31;14.45;56.08
71098;SHT35;58754;47.622;-2.986;2023-03-11T04:21:57;14.47;56.11
71098;SHT35;58754;47.622;-2.986;2023-03-11T04:24:23;14.47;56.13
71098;SHT35;58754;47.622;-2.986;2023-03-11T04:26:49;14.48;56.09
71098;SHT35;58754;47.622;-2.986;2023-03-11T04:29:14;14.45;56.09
71098;SHT35;58754;47.622;-2.986;2023-03-11T04:31:40;14.47;56.13
71098;SHT35;58754;47.622;-2.986;2023-03-11T04:34:06;14.47;56.12
71098;SHT35;58754;47.622;-2.986;2023-03-11T04:36:32;14.45;56.10
71098;SHT35;58754;47.622;-2.986;2023-03-11T04:38:57;14.47;56.12
71098;SHT35;58754;47.622;-2.986;2023-03-11T04:41:23;14.45;56.13
71098;SHT35;58754;47.622;-2.986;2023-03-11T04:43:49;14.45;56.16
71098;SHT35;58754;47.622;-2.986;2023-03-11T04:46:14;14.45;56.10
71098;SHT35;58754;47.622;-2.986;2023-03-11T04:48:40;14.45;56.13
71098;SHT35;58754;47.622;-2.986;2023-03-11T04:51:06;14.44;56.13
71098;SHT35;58754;47.622;-2.986;2023-03-11T04:53:32;14.48;56.10
71098;SHT35;58754;47.622;-2.986;2023-03-11T04:55:59;14.47;56.12
71098;SHT35;58754;47.622;-2.986;2023-03-11T04:58:24;14.47;56.13
71098;SHT35;58754;47.622;-2.986;2023-03-11T05:00:51;14.47;56.14
71098;SHT35;58754;47.622;-2.986;2023-03-11T05:03:17;14.47;56.12
71098;SHT35;58754;47.622;-2.986;2023-03-11T05:05:44;14.49;56.13
71098;SHT35;58754;47.622;-2.986;2023-03-11T05:08:10;14.48;56.12
71098;SHT35;58754;47.622;-2.986;2023-03-11T05:10:36;14.47;56.14
71098;SHT35;58754;47.622;-2.986;2023-03-11T05:13:03;14.45;56.14
71098;SHT35;58754;47.622;-2.986;2023-03-11T05:15:29;14.48;56.14
71098;SHT35;58754;47.622;-2.986;2023-03-11T05:17:56;14.44;56.12
71098;SHT35;58754;47.622;-2.986;2023-03-11T05:20:22;14.44;56.13
71098;SHT35;58754;47.622;-2.986;2023-03-11T05:22:47;14.44;56.15
71098;SHT35;58754;47.622;-2.986;2023-03-11T05:25:13;14.48;56.17
71098;SHT35;58754;47.622;-2.986;2023-03-11T05:27:39;14.44;56.13
71098;SHT35;58754;47.622;-2.986;2023-03-11T05:30:06;14.44;56.13
71098;SHT35;58754;47.622;-2.986;2023-03-11T05:32:32;14.45;56.14
71098;SHT35;58754;47.622;-2.986;2023-03-11T05:34:58;14.45;56.16
71098;SHT35;58754;47.622;-2.986;2023-03-11T05:37:24;14.44;56.16
71098;SHT35;58754;47.622;-2.986;2023-03-11T05:39:51;14.44;56.16
71098;SHT35;58754;47.622;-2.986;2023-03-11T05:42:17;14.42;56.16
71098;SHT35;58754;47.622;-2.986;2023-03-11T05:44:42;14.42;56.17
71098;SHT35;58754;47.622;-2.986;2023-03-11T05:47:08;14.42;56.15
71098;SHT35;58754;47.622;-2.986;2023-03-11T05:49:34;14.44;56.15
71098;SHT35;58754;47.622;-2.986;2023-03-11T05:52:00;14.44;56.15
71098;SHT35;58754;47.622;-2.986;2023-03-11T05:54:25;14.45;56.13
71098;SHT35;58754;47.622;-2.986;2023-03-11T05:56:51;14.42;56.16
71098;SHT35;58754;47.622;-2.986;2023-03-11T05:59:17;14.45;56.16
71098;SHT35;58754;47.622;-2.986;2023-03-11T06:01:43;14.44;56.16
71098;SHT35;58754;47.622;-2.986;2023-03-11T06:04:09;14.44;56.15
71098;SHT35;58754;47.622;-2.986;2023-03-11T06:06:36;14.47;56.19
71098;SHT35;58754;47.622;-2.986;2023-03-11T06:09:02;14.42;56.18
71098;SHT35;58754;47.622;-2.986;2023-03-11T06:11:28;14.45;56.17
71098;SHT35;58754;47.622;-2.986;2023-03-11T06:13:56;14.44;56.19
71098;SHT35;58754;47.622;-2.986;2023-03-11T06:16:23;14.44;56.18
71098;SHT35;58754;47.622;-2.986;2023-03-11T06:18:50;14.44;56.15
71098;SHT35;58754;47.622;-2.986;2023-03-11T06:21:19;14.44;56.16
71098;SHT35;58754;47.622;-2.986;2023-03-11T06:23:45;14.44;56.16
71098;SHT35;58754;47.622;-2.986;2023-03-11T06:26:14;14.44;56.18
71098;SHT35;58754;47.622;-2.986;2023-03-11T06:28:44;14.44;56.17
71098;SHT35;58754;47.622;-2.986;2023-03-11T06:31:19;14.42;56.19
71098;SHT35;58754;47.622;-2.986;2023-03-11T06:33:46;14.42;56.18
71098;SHT35;58754;47.622;-2.986;2023-03-11T06:36:14;14.41;56.17
71098;SHT35;58754;47.622;-2.986;2023-03-11T06:38:40;14.41;56.17
71098;SHT35;58754;47.622;-2.986;2023-03-11T06:41:06;14.44;56.19
71098;SHT35;58754;47.622;-2.986;2023-03-11T06:43:33;14.41;56.17
71098;SHT35;58754;47.622;-2.986;2023-03-11T06:46:00;14.41;56.18
71098;SHT35;58754;47.622;-2.986;2023-03-11T06:48:27;14.42;56.21
71098;SHT35;58754;47.622;-2.986;2023-03-11T06:50:59;14.44;56.21
71098;SHT35;58754;47.622;-2.986;2023-03-11T06:53:27;14.41;56.16
71098;SHT35;58754;47.622;-2.986;2023-03-11T06:58:25;14.41;56.23
71098;SHT35;58754;47.622;-2.986;2023-03-11T07:00:51;14.41;56.21
71098;SHT35;58754;47.622;-2.986;2023-03-11T07:03:17;14.41;56.23
71098;SHT35;58754;47.622;-2.986;2023-03-11T07:05:43;14.44;56.20
71098;SHT35;58754;47.622;-2.986;2023-03-11T07:08:09;14.41;56.23
71098;SHT35;58754;47.622;-2.986;2023-03-11T07:10:35;14.41;56.23
71098;SHT35;58754;47.622;-2.986;2023-03-11T07:13:01;14.41;56.23
71098;SHT35;58754;47.622;-2.986;2023-03-11T07:15:26;14.40;56.23
71098;SHT35;58754;47.622;-2.986;2023-03-11T07:17:52;14.38;56.25
71098;SHT35;58754;47.622;-2.986;2023-03-11T07:20:18;14.38;56.22
71098;SHT35;58754;47.622;-2.986;2023-03-11T07:22:43;14.42;56.23
71098;SHT35;58754;47.622;-2.986;2023-03-11T07:25:09;14.41;56.25
71098;SHT35;58754;47.622;-2.986;2023-03-11T07:27:35;14.41;56.20
71098;SHT35;58754;47.622;-2.986;2023-03-11T07:30:01;14.41;56.26
71098;SHT35;58754;47.622;-2.986;2023-03-11T07:32:27;14.40;56.19
71098;SHT35;58754;47.622;-2.986;2023-03-11T07:34:53;14.41;56.20
71098;SHT35;58754;47.622;-2.986;2023-03-11T07:37:19;14.41;56.24
71098;SHT35;58754;47.622;-2.986;2023-03-11T07:39:44;14.41;56.25
71098;SHT35;58754;47.622;-2.986;2023-03-11T07:42:10;14.40;56.25
71098;SHT35;58754;47.622;-2.986;2023-03-11T07:44:36;14.38;56.26
71098;SHT35;58754;47.622;-2.986;2023-03-11T07:47:05;14.38;56.27
71098;SHT35;58754;47.622;-2.986;2023-03-11T07:49:31;14.38;56.29
71098;SHT35;58754;47.622;-2.986;2023-03-11T07:51:57;14.40;56.27
71098;SHT35;58754;47.622;-2.986;2023-03-11T07:54:22;14.38;56.29
71098;SHT35;58754;47.622;-2.986;2023-03-11T07:56:48;14.40;56.32
71098;SHT35;58754;47.622;-2.986;2023-03-11T07:59:14;14.40;56.33
71098;SHT35;58754;47.622;-2.986;2023-03-11T08:01:40;14.40;56.30
71098;SHT35;58754;47.622;-2.986;2023-03-11T08:04:12;14.38;56.34
71098;SHT35;58754;47.622;-2.986;2023-03-11T08:06:41;14.37;56.30
71098;SHT35;58754;47.622;-2.986;2023-03-11T08:09:08;14.37;56.38
71098;SHT35;58754;47.622;-2.986;2023-03-11T08:11:34;14.37;56.32
71098;SHT35;58754;47.622;-2.986;2023-03-11T08:14:01;14.37;56.37
71098;SHT35;58754;47.622;-2.986;2023-03-11T08:16:27;14.38;56.35
71098;SHT35;58754;47.622;-2.986;2023-03-11T08:18:53;14.38;56.35
71098;SHT35;58754;47.622;-2.986;2023-03-11T08:21:21;14.37;56.38
71098;SHT35;58754;47.622;-2.986;2023-03-11T08:23:48;14.36;56.40
71098;SHT35;58754;47.622;-2.986;2023-03-11T08:26:19;14.37;56.37
71098;SHT35;58754;47.622;-2.986;2023-03-11T08:28:46;14.37;56.40
71098;SHT35;58754;47.622;-2.986;2023-03-11T08:31:17;14.38;56.40
71098;SHT35;58754;47.622;-2.986;2023-03-11T08:33:45;14.38;56.43
71098;SHT35;58754;47.622;-2.986;2023-03-11T08:36:11;14.37;56.44
71098;SHT35;58754;47.622;-2.986;2023-03-11T08:38:37;14.38;56.42
71098;SHT35;58754;47.622;-2.986;2023-03-11T08:41:03;14.36;56.45
71098;SHT35;58754;47.622;-2.986;2023-03-11T08:43:29;14.37;56.45
71098;SHT35;58754;47.622;-2.986;2023-03-11T08:45:55;14.38;56.45
71098;SHT35;58754;47.622;-2.986;2023-03-11T08:48:21;14.34;56.45
71098;SHT35;58754;47.622;-2.986;2023-03-11T08:50:49;14.37;56.45
71098;SHT35;58754;47.622;-2.986;2023-03-11T08:53:15;14.36;56.44
71098;SHT35;58754;47.622;-2.986;2023-03-11T08:55:41;14.37;56.48
71098;SHT35;58754;47.622;-2.986;2023-03-11T08:58:07;14.36;56.51
71098;SHT35;58754;47.622;-2.986;2023-03-11T09:00:33;14.37;56.51
71098;SHT35;58754;47.622;-2.986;2023-03-11T09:03:00;14.36;56.51
71098;SHT35;58754;47.622;-2.986;2023-03-11T09:05:25;14.33;56.52
71098;SHT35;58754;47.622;-2.986;2023-03-11T09:07:51;14.36;56.55
71098;SHT35;58754;47.622;-2.986;2023-03-11T09:10:17;14.34;56.53
71098;SHT35;58754;47.622;-2.986;2023-03-11T09:12:43;14.34;56.56
71098;SHT35;58754;47.622;-2.986;2023-03-11T09:15:09;14.34;56.53
71098;SHT35;58754;47.622;-2.986;2023-03-11T09:17:35;14.34;56.58
71098;SHT35;58754;47.622;-2.986;2023-03-11T09:20:02;14.34;56.60
71098;SHT35;58754;47.622;-2.986;2023-03-11T09:22:28;14.37;56.59
71098;SHT35;58754;47.622;-2.986;2023-03-11T09:24:53;14.37;56.59
71098;SHT35;58754;47.622;-2.986;2023-03-11T09:27:19;14.37;56.67
71098;SHT35;58754;47.622;-2.986;2023-03-11T09:29:45;14.36;56.66
71098;SHT35;58754;47.622;-2.986;2023-03-11T09:32:14;14.38;56.67
71098;SHT35;58754;47.622;-2.986;2023-03-11T09:34:40;14.37;56.64
71098;SHT35;58754;47.622;-2.986;2023-03-11T09:37:06;14.36;56.74
71098;SHT35;58754;47.622;-2.986;2023-03-11T09:39:32;14.34;56.68
71098;SHT35;58754;47.622;-2.986;2023-03-11T09:42:10;14.34;56.68
71098;SHT35;58754;47.622;-2.986;2023-03-11T09:44:55;14.34;56.71
71098;SHT35;58754;47.622;-2.986;2023-03-11T09:55:53;14.34;56.85
71098;SHT35;58754;47.622;-2.986;2023-03-11T09:58:39;14.36;56.83
71098;SHT35;58754;47.622;-2.986;2023-03-11T10:01:27;14.36;56.87
71098;SHT35;58754;47.622;-2.986;2023-03-11T10:03:56;14.34;56.93
71098;SHT35;58754;47.622;-2.986;2023-03-11T10:06:29;14.36;56.96
71098;SHT35;58754;47.622;-2.986;2023-03-11T10:11:41;14.38;57.01
71098;SHT35;58754;47.622;-2.986;2023-03-11T10:22:50;14.37;57.09
71098;SHT35;58754;47.622;-2.986;2023-03-11T10:25:29;14.38;57.09
71098;SHT35;58754;47.622;-2.986;2023-03-11T10:28:02;14.36;57.13
71098;SHT35;58754;47.622;-2.986;2023-03-11T10:35:51;14.40;57.25
71098;SHT35;58754;47.622;-2.986;2023-03-11T10:38:29;14.37;57.26
71098;SHT35;58754;47.622;-2.986;2023-03-11T10:41:00;14.40;57.33
71098;SHT35;58754;47.622;-2.986;2023-03-11T10:43:42;14.38;57.34
71098;SHT35;58754;47.622;-2.986;2023-03-11T10:46:22;14.38;57.36
71098;SHT35;58754;47.622;-2.986;2023-03-11T10:48:49;14.38;57.39
71098;SHT35;58754;47.622;-2.986;2023-03-11T10:51:17;14.40;57.40
71098;SHT35;58754;47.622;-2.986;2023-03-11T10:53:59;14.40;57.37
71098;SHT35;58754;47.622;-2.986;2023-03-11T10:56:39;14.40;57.42
71098;SHT35;58754;47.622;-2.986;2023-03-11T10:59:27;14.41;57.47
71098;SHT35;58754;47.622;-2.986;2023-03-11T11:04:48;14.40;57.57
71098;SHT35;58754;47.622;-2.986;2023-03-11T11:07:30;14.41;57.56
71098;SHT35;58754;47.622;-2.986;2023-03-11T11:10:14;14.41;57.60
71098;SHT35;58754;47.622;-2.986;2023-03-11T11:15:28;14.40;57.63
71098;SHT35;58754;47.622;-2.986;2023-03-11T11:17:56;14.40;57.65
71098;SHT35;58754;47.622;-2.986;2023-03-11T11:20:24;14.40;57.64
71098;SHT35;58754;47.622;-2.986;2023-03-11T11:22:53;14.37;57.72
71098;SHT35;58754;47.622;-2.986;2023-03-11T11:27:54;14.42;57.75
71098;SHT35;58754;47.622;-2.986;2023-03-11T11:30:20;14.40;57.84
71098;SHT35;58754;47.622;-2.986;2023-03-11T11:32:46;14.40;57.85
71098;SHT35;58754;47.622;-2.986;2023-03-11T11:35:15;14.41;57.84
71098;SHT35;58754;47.622;-2.986;2023-03-11T11:37:45;14.42;57.91
71098;SHT35;58754;47.622;-2.986;2023-03-11T11:42:46;14.41;58.00
71098;SHT35;58754;47.622;-2.986;2023-03-11T11:45:18;14.41;58.08
71098;SHT35;58754;47.622;-2.986;2023-03-11T11:47:51;14.42;58.03
71098;SHT35;58754;47.622;-2.986;2023-03-11T11:50:40;14.42;58.05
71098;SHT35;58754;47.622;-2.986;2023-03-11T11:53:26;14.44;58.12
71098;SHT35;58754;47.622;-2.986;2023-03-11T11:55:53;14.44;58.17
71098;SHT35;58754;47.622;-2.986;2023-03-11T11:58:20;14.42;58.22
71098;SHT35;58754;47.622;-2.986;2023-03-11T12:10:04;14.42;58.27
71098;SHT35;58754;47.622;-2.986;2023-03-11T12:12:41;14.44;58.41
71098;SHT35;58754;47.622;-2.986;2023-03-11T12:15:15;14.44;58.42
71098;SHT35;58754;47.622;-2.986;2023-03-11T12:17:45;14.44;58.48
71098;SHT35;58754;47.622;-2.986;2023-03-11T12:20:17;14.45;58.49
71098;SHT35;58754;47.622;-2.986;2023-03-11T12:23:16;14.44;58.55
71098;SHT35;58754;47.622;-2.986;2023-03-11T12:31:02;14.45;58.62
71098;SHT35;58754;47.622;-2.986;2023-03-11T12:33:56;14.44;58.63
71098;SHT35;58754;47.622;-2.986;2023-03-11T12:38:50;14.44;58.70
71098;SHT35;58754;47.622;-2.986;2023-03-11T12:41:34;14.45;58.70
71098;SHT35;58754;47.622;-2.986;2023-03-11T12:44:19;14.47;58.80
71098;SHT35;58754;47.622;-2.986;2023-03-11T12:49:42;14.49;58.81
71098;SHT35;58754;47.622;-2.986;2023-03-11T12:54:38;14.48;58.91
71098;SHT35;58754;47.622;-2.986;2023-03-11T13:02:25;14.48;59.01
71098;SHT35;58754;47.622;-2.986;2023-03-11T13:07:44;14.49;59.07
71098;SHT35;58754;47.622;-2.986;2023-03-11T13:10:32;14.49;59.12
71098;SHT35;58754;47.622;-2.986;2023-03-11T13:13:00;14.47;59.16
71098;SHT35;58754;47.622;-2.986;2023-03-11T13:15:35;14.47;59.24
71098;SHT35;58754;47.622;-2.986;2023-03-11T13:18:17;14.48;59.29
71098;SHT35;58754;47.622;-2.986;2023-03-11T13:20:46;14.49;59.31
71098;SHT35;58754;47.622;-2.986;2023-03-11T13:36:50;14.52;59.53
71098;SHT35;58754;47.622;-2.986;2023-03-11T13:42:14;14.49;59.57
71098;SHT35;58754;47.622;-2.986;2023-03-11T13:44:42;14.54;59.64
71098;SHT35;58754;47.622;-2.986;2023-03-11T13:47:15;14.52;59.63
71098;SHT35;58754;47.622;-2.986;2023-03-11T13:52:21;14.49;59.65
71098;SHT35;58754;47.622;-2.986;2023-03-11T13:54:57;14.54;59.75
71098;SHT35;58754;47.622;-2.986;2023-03-11T13:57:33;14.54;59.80
71098;SHT35;58754;47.622;-2.986;2023-03-11T14:00:17;14.52;59.77
71098;SHT35;58754;47.622;-2.986;2023-03-11T14:03:00;14.54;59.82
71098;SHT35;58754;47.622;-2.986;2023-03-11T14:05:31;14.54;59.83
71098;SHT35;58754;47.622;-2.986;2023-03-11T14:13:29;14.54;59.95
71098;SHT35;58754;47.622;-2.986;2023-03-11T14:16:07;14.55;60.07
71098;SHT35;58754;47.622;-2.986;2023-03-11T14:18:42;14.57;60.16
71098;SHT35;58754;47.622;-2.986;2023-03-11T14:21:16;14.57;60.18
71098;SHT35;58754;47.622;-2.986;2023-03-11T14:23:51;14.55;60.13
71098;SHT35;58754;47.622;-2.986;2023-03-11T14:26:20;14.58;60.09
71098;SHT35;58754;47.622;-2.986;2023-03-11T14:28:49;14.57;60.15
71098;SHT35;58754;47.622;-2.986;2023-03-11T14:31:42;14.55;60.16
71098;SHT35;58754;47.622;-2.986;2023-03-11T14:34:26;14.58;60.20
71098;SHT35;58754;47.622;-2.986;2023-03-11T14:36:52;14.58;60.29
71098;SHT35;58754;47.622;-2.986;2023-03-11T14:41:56;14.55;60.38
71098;SHT35;58754;47.622;-2.986;2023-03-11T14:44:23;14.58;60.46
71098;SHT35;58754;47.622;-2.986;2023-03-11T14:46:51;14.58;60.42
71098;SHT35;58754;47.622;-2.986;2023-03-11T14:49:20;14.57;60.41
71098;SHT35;58754;47.622;-2.986;2023-03-11T14:51:57;14.61;60.38
71098;SHT35;58754;47.622;-2.986;2023-03-11T14:54:27;14.60;60.42
71098;SHT35;58754;47.622;-2.986;2023-03-11T14:57:06;14.60;60.43
71098;SHT35;58754;47.622;-2.986;2023-03-11T14:59:35;14.61;60.47
71098;SHT35;58754;47.622;-2.986;2023-03-11T15:02:36;14.58;60.48
71098;SHT35;58754;47.622;-2.986;2023-03-11T15:05:10;14.62;60.55
71098;SHT35;58754;47.622;-2.986;2023-03-11T15:07:39;14.62;60.60
71098;SHT35;58754;47.622;-2.986;2023-03-11T15:10:09;14.62;60.59
71098;SHT35;58754;47.622;-2.986;2023-03-11T15:12:40;14.64;60.61
71098;SHT35;58754;47.622;-2.986;2023-03-11T15:15:39;14.61;60.60
71098;SHT35;58754;47.622;-2.986;2023-03-11T15:18:28;14.61;60.66
71098;SHT35;58754;47.622;-2.986;2023-03-11T15:21:13;14.64;60.72
71098;SHT35;58754;47.622;-2.986;2023-03-11T15:24:03;14.62;60.72
71098;SHT35;58754;47.622;-2.986;2023-03-11T15:26:34;14.62;60.76
71098;SHT35;58754;47.622;-2.986;2023-03-11T15:29:15;14.64;60.73
71098;SHT35;58754;47.622;-2.986;2023-03-11T15:31:43;14.64;60.82
71098;SHT35;58754;47.622;-2.986;2023-03-11T15:36:52;14.65;60.85
71098;SHT35;58754;47.622;-2.986;2023-03-11T15:47:09;14.62;60.80
71098;SHT35;58754;47.622;-2.986;2023-03-11T15:49:36;14.64;60.90
71098;SHT35;58754;47.622;-2.986;2023-03-11T15:52:02;14.62;60.84
71098;SHT35;58754;47.622;-2.986;2023-03-11T15:54:28;14.64;60.83
71098;SHT35;58754;47.622;-2.986;2023-03-11T15:56:55;14.64;60.82
71098;SHT35;58754;47.622;-2.986;2023-03-11T15:59:23;14.64;60.85
71098;SHT35;58754;47.622;-2.986;2023-03-11T16:01:49;14.65;60.99
71098;SHT35;58754;47.622;-2.986;2023-03-11T16:04:17;14.65;60.86
71098;SHT35;58754;47.622;-2.986;2023-03-11T16:06:44;14.67;60.91
71098;SHT35;58754;47.622;-2.986;2023-03-11T16:09:11;14.67;60.97
71098;SHT35;58754;47.622;-2.986;2023-03-11T16:11:38;14.67;60.88
71098;SHT35;58754;47.622;-2.986;2023-03-11T16:14:05;14.68;60.94
71098;SHT35;58754;47.622;-2.986;2023-03-11T16:16:31;14.68;60.97
71098;SHT35;58754;47.622;-2.986;2023-03-11T16:18:57;14.68;60.94
71098;SHT35;58754;47.622;-2.986;2023-03-11T16:21:29;14.68;61.01
71098;SHT35;58754;47.622;-2.986;2023-03-11T16:23:57;14.68;61.02
71098;SHT35;58754;47.622;-2.986;2023-03-11T16:26:24;14.68;61.05
71098;SHT35;58754;47.622;-2.986;2023-03-11T16:28:50;14.68;61.01
71098;SHT35;58754;47.622;-2.986;2023-03-11T16:31:16;14.68;60.99
71098;SHT35;58754;47.622;-2.986;2023-03-11T16:33:42;14.72;61.04
71098;SHT35;58754;47.622;-2.986;2023-03-11T16:36:09;14.69;61.03
71098;SHT35;58754;47.622;-2.986;2023-03-11T16:38:45;14.69;61.00
71098;SHT35;58754;47.622;-2.986;2023-03-11T16:41:11;14.69;61.05
71098;SHT35;58754;47.622;-2.986;2023-03-11T16:43:37;14.69;61.06
71098;SHT35;58754;47.622;-2.986;2023-03-11T16:46:03;14.71;61.12
71098;SHT35;58754;47.622;-2.986;2023-03-11T16:48:28;14.71;61.16
71098;SHT35;58754;47.622;-2.986;2023-03-11T16:50:54;14.69;61.16
71098;SHT35;58754;47.622;-2.986;2023-03-11T16:53:20;14.71;61.18
71098;SHT35;58754;47.622;-2.986;2023-03-11T16:55:46;14.71;61.16
71098;SHT35;58754;47.622;-2.986;2023-03-11T16:58:13;14.72;61.16
71098;SHT35;58754;47.622;-2.986;2023-03-11T17:00:39;14.71;61.23
71098;SHT35;58754;47.622;-2.986;2023-03-11T17:03:13;14.73;61.15
71098;SHT35;58754;47.622;-2.986;2023-03-11T17:05:40;14.72;61.22
71098;SHT35;58754;47.622;-2.986;2023-03-11T17:08:05;14.72;61.24
71098;SHT35;58754;47.622;-2.986;2023-03-11T17:10:36;14.73;61.23
71098;SHT35;58754;47.622;-2.986;2023-03-11T17:13:04;14.73;61.26
71098;SHT35;58754;47.622;-2.986;2023-03-11T17:15:30;14.72;61.24
71098;SHT35;58754;47.622;-2.986;2023-03-11T17:17:57;14.71;61.26